Résultats événements

23/06/2019 Triathlon de Chalain 2019-Triathlon S




Sortie natation

Arrivée vélo

Arrivée
Categorie:

Clt Temps de course Nom Dos Cat Temps sur l'intervalle Clt int. Gain
1 01:02:58 BOURGEOIS Alexandre 93 MS1 00:16:59 1 1
2 01:03:35 HUE Simon 4 MCA 00:17:39 4 -1
3 01:05:03 GUERIN Mathéo 2 MCA 00:18:21 9 0
4 01:05:05 SAGE Gabin 5 MCA 00:18:19 8 0
5 01:05:17 SIBILLE Charly 9 MS2 00:17:51 5 2
6 01:05:25 GABET BRUGVIN Theo 84 MCA 00:18:38 13 -1
7 01:06:12 INVERNIZZI Gael 125 MJU 00:17:36 3 6
8 01:06:32 ROGEBOZ Marcus 136 MCA 00:18:00 7 3
9 01:07:00 FLEURY Valentin 158 MS2 00:19:27 28 0
10 01:07:08 PHILIPPE Titouan 8 MCA 00:19:36 31 -2
11 01:07:16 CHAUVIN Titouan 3 MCA 00:18:32 12 3
12 01:07:24 DOUBEY Loic 81 MS2 00:19:48 34 -2
13 01:07:34 CNP Triathlon Pontarlier 1 383 RELH 00:20:42 55 -7
14 01:07:58 PHILIPPE Anthony 10 MV3 00:19:22 26 -2
15 01:08:38 MAUCHANT Alois 135 MJU 00:18:30 11 10
16 01:08:41 TRIPONEZ Robin 102 MCA 00:19:49 35 0
17 01:08:55 BERTHE Benoit 224 MS4 00:18:55 17 5
18 01:09:01 ARNAUD Cedric 225 MV1 00:19:00 19 5
19 01:09:14 MONNIER-BENOIT Philippe 202 MS4 00:19:08 22 5
20 01:09:32 PROTOY Vincent 113 MV2 00:18:58 18 11
21 01:09:34 TISSOT Romain 62 MS1 00:20:19 43 -2
22 01:09:36 BREUIL Jérémy 339 MS1 00:19:19 25 5
23 01:09:50 SARADIN Clement 114 MCA 00:19:18 24 6
24 01:09:58 BEAUVIR Thomas 313 MCA 00:20:44 56 -6
25 01:10:02 MORIZOT Laury 335 MS2 00:21:16 74 -10
26 01:10:11 VUILLET Simon 163 FJU 00:19:36 30 7
27 01:10:12 STEBE Gregory 241 MV1 00:20:50 61 -7
28 01:10:19 MEDUS Lilian 256 MS4 00:17:35 2 16
29 01:10:38 DESANTINE Michael 255 MV2 00:20:04 39 1
30 01:10:41 MONTIALOUX Killian 175 MCA 00:21:47 92 -13
31 01:10:44 DUNAND Jean-marc 31 MV3 00:21:19 75 -10
32 01:10:49 BARON Arnaud 340 MV1 00:20:23 46 -4
33 01:11:05 FAVIER Matthias 105 MCA 00:20:30 48 -1
34 01:11:28 GAUTHIER Tonny 123 MV1 00:21:13 71 -8
35 01:11:33 SULTANA Victor 226 MCA 00:20:07 41 4
36 01:11:57 Plailly Heroes 376 RELH 00:17:57 6 25
37 01:12:03 LOISY Victor 108 MCA 00:21:13 72 -2
38 01:12:08 EQIOM_DREAM_TEAM 360 RELH 00:18:54 16 13
39 01:12:10 LES TITANS 396 RELH 00:18:26 10 21
40 01:12:12 PAYOT Thomas 99 MV1 00:21:03 66 -3
41 01:12:14 POSTAL Leandre 72 MCA 00:21:20 76 -5
42 01:12:26 NAEGELLEN Arthur 7 MS2 00:19:41 32 3
43 01:12:27 CHABOD Benoit 198 MV1 00:18:43 14 16
44 01:12:27 GLORIOD Alexandre 191 MS2 00:20:45 58 -4
45 01:12:36 CHAPET Augustin 50 MCA 00:21:50 93 -11
46 01:12:46 BROCCO Johanna 82 FS3 00:20:54 63 -5
47 01:12:49 LENNE Antoine 75 MCA 00:19:45 33 2
48 01:13:05 MICHAUD Mickael 16 MS3 00:19:29 29 9
49 01:13:13 DION Maxence 103 MCA 00:21:52 95 -11
50 01:13:14 CORBET Stéphane 164 MS2 00:20:05 40 0
51 01:13:17 PAVOINE Alexandre 258 MV1 00:19:10 23 14
52 01:13:20 MATHIEU Erwan 140 MCA 00:20:40 53 -9
53 01:13:28 VENET Matthieu 92 MV1 00:19:58 38 3
54 01:13:43 ECUYER Maud 331 FJU 00:21:29 79 -12
55 01:13:51 HURTARD Stéphane 203 MV2 00:20:58 64 -9
56 01:14:07 POIZAT Eric 290 MV3 00:21:06 67 -8
57 01:14:07 COURAGEOT Bertrand 292 MV1 00:20:23 45 1
58 01:14:38 BREGAND Mickael 36 MS4 00:21:38 85 -11
59 01:14:47 DECROCQ Antoine 286 MS1 00:19:03 21 20
60 01:14:52 Dijon Tri 401 401 RELH 00:19:50 36 11
61 01:14:57 ESCOLEIRA Antoine 220 MS4 00:21:33 82 -7
62 01:15:01 FERNEY Bruno 167 MV3 00:21:46 91 -10
63 01:15:18 BOSC Camille 6 FCA 00:21:12 70 1
64 01:15:22 GEAY Christophe 110 MV3 00:21:12 68 2
65 01:15:23 SIRIEIX Benjamin 186 MJU 00:20:23 44 5
66 01:15:34 FERRAND David 154 MV1 00:20:41 54 3
67 01:16:06 DRAPPIER Nicolas 96 MS3 00:18:45 15 32
68 01:16:09 SANIARD Flavien 218 MS3 00:20:37 52 6
69 01:16:27 DEMARET Maureen 1 FS4 00:20:31 50 13
70 01:16:37 MARCHETTI Charline 18 FS2 00:22:09 105 -3
71 01:17:04 FOUTELET Simon 118 MS3 00:20:25 47 18
72 01:17:10 DA ROCHA Pierre 245 MS1 00:21:35 83 5
73 01:17:12 VICTOR Paul 35 MCA 00:23:08 131 -11
74 01:17:52 DARAN Tanguy 275 MS3 00:21:58 101 7
75 01:17:54 MATTHEY Quentin 260 MS1 00:24:32 181 -22
76 01:18:02 NICOLAS Julien 121 MJU 00:22:56 126 -4
77 01:18:07 VERNIZEAU Camille 52 FS1 00:20:48 59 21
78 01:18:09 BAUMLER Christophe 39 MV2 00:22:27 114 0
79 01:18:29 MARCHAND Antoine 83 MS3 00:21:41 87 12
80 01:18:36 RAMEL Charly 227 MCA 00:22:32 119 3
81 01:18:38 La team grandvaux 374 RELM 00:21:14 73 19
82 01:18:43 LAMBERT Herve 214 MV1 00:20:30 49 24
83 01:18:48 FRAISSE Bertrand 38 MV3 00:22:30 116 2
84 01:18:49 PATRY Anne 73 FCA 00:22:13 106 3
85 01:18:51 NESSAKH Elias 242 MCA 00:21:35 84 12
86 01:18:58 CARDOT Vincent 15 MS3 00:21:00 65 18
87 01:19:02 MALVEZIN Charles-edouard 44 MV1 00:21:25 78 15
88 01:19:08 LABILLE Quentin 177 MS2 00:22:00 102 8
89 01:19:11 GRIVEAU Sebastien 22 MS1 00:22:16 108 3
90 01:19:14 COURGEY Stephane 80 MS4 00:24:25 176 -22
91 01:19:22 GRANDMAISON Maxime 14 MS2 00:22:25 112 2
92 01:19:26 JARMUZYNSKI Marc 144 MS2 00:20:44 57 20
93 01:19:27 MARCHETTI Aurélien 289 MJU 00:21:57 100 8
94 01:19:36 FAIVRE Jérôme 207 MV1 00:24:02 166 -18
95 01:19:38 HüPPY Reinhold 327 MV3 00:23:16 137 -9
96 01:19:44 LAVENU Noah 139 MCA 00:24:12 170 -21
97 01:19:52 ARBEZ Loris 223 MS2 00:21:50 94 8
98 01:20:00 MILLION Antony 159 MS1 00:24:07 167 -18
99 01:20:12 DUQUET Pascal 221 MV3 00:23:32 145 -9
100 01:20:17 POULIOS Maxime 195 MS2 00:22:31 118 3
101 01:20:22 Les badingues 387 RELM 00:26:52 263 -46
102 01:20:37 les darons du CTC 382 RELH 00:25:15 221 -29
103 01:20:56 CHARAU Maxime 58 MJU 00:20:52 62 28
104 01:20:59 CLEMENCE Aurelien 17 MS2 00:24:42 195 -20
105 01:21:06 SANDOT Emilie 40 FS3 00:22:02 103 13
106 01:21:13 Brodier - Auloy 400 RELM 00:27:08 276 -43
107 01:21:32 Les fondeurs 392 RELM 00:21:30 81 23
108 01:21:35 CONSTANZO Thomas 104 MV3 00:24:57 204 -20
109 01:21:36 ARBEL Loïc 66 MS1 00:22:44 124 6
110 01:21:42 BONIN Gerald 197 MV2 00:23:27 141 -3
111 01:21:46 MIGUEL Roger 312 MV2 00:22:27 113 10
112 01:21:49 COTE Jean francois 264 MS4 00:24:41 194 -17
113 01:21:53 BERTHAUT Aurelien 143 MV1 00:24:48 201 -19
114 01:22:04 Robert's Cousins 367 RELM 00:23:49 158 -6
115 01:22:29 DONGHI Romain 88 MS3 00:22:05 104 24
116 01:22:30 RUAL Erwan 274 MV2 00:22:31 117 12
117 01:22:34 MORELLI Helene 45 FV1 00:23:11 133 5
118 01:22:35 ALCARAS Eric 42 MV2 00:22:34 120 11
119 01:22:39 GRESSET Yann 147 MV2 00:21:57 99 24
120 01:22:45 FERRIER Fabien 347 MS3 00:21:41 88 30
121 01:22:48 JACQUEMIN-VERGUET Mathieu 350 MS3 00:24:32 182 -12
122 01:23:08 GIRARDET Marion 271 FS3 00:23:49 157 -2
123 01:23:10 CLAVELIN-TRUCHON Romain 246 MS3 00:23:15 135 4
124 01:23:17 HUG Catherine 141 FV4 00:24:19 173 -7
125 01:23:20 VALNET Jade 74 FCA 00:24:37 188 -11
126 01:23:24 BOURGEOIS Mathieu 11 MS2 00:21:12 69 42
127 01:23:39 STEGER Ludovic 196 MV2 00:24:57 205 -14
128 01:23:45 REMY Franck 343 MS4 00:20:12 42 67
129 01:23:50 Team Gyoza 397 RELM 00:24:11 169 -6
130 01:23:52 BOGNON Jonathan 184 MS2 00:24:59 207 -14
131 01:23:58 GHESQUIERE Tom 239 MCA 00:25:24 225 -20
132 01:23:59 CELLIER Apolline 12 FS1 00:24:13 171 -7
133 01:24:02 EQIOM Bétons 1 354 RELH 00:20:34 51 59
134 01:24:02 ARNAUD Laurent 157 MV3 00:23:40 151 4
135 01:24:03 MEZUREUX Jean marc 338 MV3 00:23:55 160 -3
136 01:24:09 ce fromagere lons 390 RELH 00:21:29 80 39
137 01:24:11 SULTANA Alexandre 79 MV1 00:24:27 178 -13
138 01:24:12 Les tondus 363 RELH 00:23:25 139 7
139 01:24:22 Ausemik 394 RELM 00:19:57 37 73
140 01:24:30 FRETIGNY Geneviève 228 FV3 00:25:12 218 -21
141 01:24:32 MACHON Olivier 150 MV5 00:23:39 150 7
142 01:24:32 NEU Alexandre 180 MS1 00:21:25 77 39
143 01:24:35 LUSSIANA Eddy 341 MV2 00:23:46 156 3
144 01:24:35 TRIPONEZ Frederic 212 MV2 00:24:44 196 -18
145 01:24:44 PUTOD Mathis 266 MS1 00:23:29 142 11
146 01:24:44 HAREL Matthieu 85 MV1 00:23:59 164 -2
147 01:24:45 VICTOR Laurent 34 MV3 00:23:35 147 8
148 01:24:50 BERNE Jean-baptiste 318 MV1 00:24:31 180 -11
149 01:24:54 ZOTTI Nicolas 41 MV1 00:21:54 97 29
150 01:24:56 ENGELS Jean-baptiste 324 MS3 00:26:28 253 -40
151 01:24:59 FRAISSE Vitrginie 37 FV1 00:22:57 127 15
152 01:25:05 MONNIER BENOIT Coralie 142 FV1 00:23:56 162 -1
153 01:25:11 MOUGIN Thomas 162 MS2 00:20:49 60 58
154 01:25:14 SIRIEIX Yann 185 MV2 00:22:13 107 25
155 01:25:25 BURY Bernard 281 MV3 00:21:55 98 39
156 01:25:31 RAMEL Alain 345 MV2 00:24:41 193 -9
157 01:25:32 VEGA France 127 FS1 00:24:54 202 -16
158 01:25:32 BRENIAUX Jean-simon 247 MS4 00:22:22 111 26
159 01:25:51 Scheissegal 386 RELM 00:23:50 159 6
160 01:26:00 BAUMLER Natacha 109 FS4 00:25:49 236 -26
161 01:26:01 NAGENRAUFT Eddy 210 MS2 00:23:43 153 10
162 01:26:04 JOLY Greg 160 MS3 00:24:55 203 -10
163 01:26:08 Les Viper 358 RELM 00:25:30 227 -21
164 01:26:13 LACHAUX Armand 63 MV3 00:24:36 187 -4
165 01:26:20 les Pastis (CENT) 51 352 RELH 00:26:12 246 -32
166 01:26:21 LOPIN Vincent 342 MS3 00:25:10 217 -12
167 01:26:23 BELLAN Alizé 320 FS3 00:22:20 110 37
168 01:26:23 BOURAHLA Yoann 328 MS4 00:21:45 90 46
169 01:26:25 MEZUREUX Stanislas 337 MCA 00:24:59 206 -12
170 01:26:28 OLID Solange 111 FS1 00:23:38 149 6
171 01:26:30 BART Ludovic 293 MS3 00:24:39 190 -9
172 01:26:37 GRESSET Camille 77 FS1 00:25:42 232 -23
173 01:26:41 TEAM DPJ 355 RELH 00:24:16 172 -1
174 01:26:50 Les Vosgiens 388 RELM 00:23:07 130 24
175 01:26:51 BERTRAND David 145 MV2 00:25:20 222 -16
176 01:26:52 ALLARD Pierre 321 MS1 00:23:44 154 6
177 01:26:52 MANSUY Florian 301 MS3 00:22:34 121 31
178 01:26:57 les petroucka 372 RELF 00:21:53 96 46
179 01:26:59 SANDRé Thierry 173 MV4 00:26:28 252 -39
180 01:27:00 CHIAOUI Jérôme 168 MV1 00:23:11 134 19
181 01:27:03 GRESSET Fabien 146 MV1 00:23:26 140 15
182 01:27:09 BARON FORMISARO Ludivine 134 FS4 00:26:57 266 -47
183 01:27:10 BENOIT Charroux 259 MV3 00:22:54 125 24
184 01:27:11 TSCHENN Clarisse 43 FV1 00:25:44 234 -26
185 01:27:17 LEFEBVRE Guillaume 284 MV1 00:23:59 163 3
186 01:27:31 CLERGET Anne 21 FV1 00:25:15 220 -16
187 01:27:35 LAVIALE Benoit 330 MS3 00:24:21 174 -1
188 01:27:36 NEUBRAND Marine 183 FS2 00:25:08 216 -15
189 01:27:39 ANDRE Loic 201 MS3 00:22:42 122 32
190 01:27:43 PINET Matthias 153 MV1 00:24:44 197 -13
191 01:27:43 BUIN Matteo 272 MS1 00:21:41 86 44
192 01:27:53 Raph et les darons 378 RELH 00:21:44 89 45
193 01:27:54 LES GALLO-SUISSES 359 RELH 00:19:26 27 79
194 01:28:03 LAUREILLARD Alane 278 MS1 00:24:35 185 -1
195 01:28:03 DEGUISNE Stephane 336 MV2 00:23:37 148 18
196 01:28:04 CELLIER Cassandre 13 FS1 00:25:58 238 -29
197 01:28:05 JANODET Philippe 332 MS4 00:23:22 138 20
198 01:28:14 EICHENLAUB Laurent 27 MS4 00:26:18 249 -35
199 01:28:18 CLOQUIE Gregory 208 MV1 00:28:06 306 -63
200 01:28:23 FLORENTIN Claude 200 MV3 00:24:08 168 6
201 01:28:30 LE FLANCHEC Thomas 95 MS3 00:24:47 199 -4
202 01:28:34 Emilie Marcel Christine 364 RELM 00:19:03 20 88
203 01:28:37 DA SILVA Paul 277 MV3 00:24:36 186 0
204 01:28:41 MENOUILLARD Clément 126 MS4 00:23:01 128 26
205 01:29:02 les débutants du 21 361 RELM 00:23:08 132 27
206 01:29:02 JOLYCLER Marc 199 MV4 00:27:53 296 -53
207 01:29:08 JEANNIN Vincent 130 MS4 00:27:22 283 -46
208 01:29:12 PINTOS Jonathan 285 MS1 00:25:06 215 -3
209 01:29:13 GALMICHE Axel 187 MS1 00:26:41 257 -35
210 01:29:19 CORNEMILLOT Aline 182 FV3 00:27:05 272 -41
211 01:29:20 DELITOT Cyril 189 MV1 00:24:37 189 5
212 01:29:21 CLERC Jérôme 306 MV1 00:25:01 210 -3
213 01:29:38 MAURO Catherine 237 FV2 00:25:49 235 -13
214 01:29:39 RAILLARD Antoine 211 MS2 00:26:26 251 -29
215 01:29:41 GROSPERRIN Corinne 78 FV4 00:27:41 294 -51
216 01:29:54 LANCE Cedric 213 MS4 00:26:30 254 -26
217 01:29:56 Les skieuses 398 RELF 00:23:16 136 26
218 01:30:01 MICHAUD Evan 137 MCA 00:24:26 177 11
219 01:30:02 BLANC David 322 MV1 00:26:45 261 -32
220 01:30:08 TROUGNOU Alexis 219 MS4 00:26:49 262 -31
221 01:30:22 Les grands savants 391 RELH 00:22:43 123 35
222 01:30:26 ALLAIRE Alexandre 346 MS4 00:25:23 223 1
223 01:30:27 Les costauds 362 RELH 00:22:28 115 39
224 01:30:33 Rougeot Triathlon 377 RELM 00:22:20 109 43
225 01:30:38 GAULARD Henri 56 MV2 00:25:58 239 -10
226 01:30:53 ROGUET-ERIZE Niels 122 MJU 00:25:55 237 -4
227 01:30:54 BOIRON Guillaume 296 MS4 00:23:30 144 26
228 01:31:00 GARNIER Jean françois 170 MV4 00:26:39 256 -18
229 01:31:09 BERTHIER Charline 240 FS2 00:24:47 200 12
230 01:31:09 VUILLEMIN Adele 19 FCA 00:25:24 224 1
231 01:31:16 HINTZY Thomas 120 MS4 00:26:03 241 -5
232 01:31:18 DULAC Arnaud 216 MV1 00:24:01 165 19
233 01:31:25 GIRARDIN Valerie 54 FV4 00:27:57 299 -42
234 01:31:42 Boujeons en force 399 RELM 00:26:59 269 -15
235 01:31:47 JEANNET Louise 244 FCA 00:24:46 198 12
236 01:31:53 DAVID Priscilla 161 FS3 00:27:07 275 -16
237 01:31:53 POBELLE Sylvain 129 MS4 00:28:52 323 -57
238 01:32:02 BRENDLE Didier 30 MV5 00:26:07 244 -5
239 01:32:04 BAUDOUIN Cécile 349 FS2 00:23:56 161 26
240 01:32:15 DANGEUL Marjolaine 238 FCA 00:26:14 247 -6
241 01:32:29 OUZAID Camille 172 FS1 00:24:24 175 23
242 01:32:52 DEMOUGEOT Jean-yves 194 MV4 00:28:08 308 -24
243 01:32:57 SALERY Flavien 28 MS4 00:25:04 212 18
244 01:33:14 GROSJEAN Clemence 243 FCA 00:29:18 332 -42
245 01:33:24 POURCHET Willy 149 MS2 00:25:39 231 14
246 01:33:26 CHARLES Juliette 55 FS4 00:27:04 271 -4
247 01:33:31 LOMBAERT Julien 64 MS3 00:25:43 233 13
248 01:33:31 MARCHAL Justine 67 FS2 00:29:41 340 -47
249 01:33:38 DOUZENEL Gilles 257 MV4 00:25:05 214 24
250 01:33:50 LECLERC Emilie 128 FS3 00:27:35 290 -12
251 01:33:50 Groupama 402 402 RELH 00:26:54 264 -5
252 01:34:02 SANCHEZ Elena 169 FS1 00:25:26 226 25
253 01:34:14 LORIVAL Vincent 151 MS3 00:25:36 230 25
254 01:34:18 BORGAZZI Roland 133 MV6 00:28:02 302 -15
255 01:34:20 DA ROCHA Cecile 217 FJU 00:27:28 286 -10
256 01:34:34 BIARD / CORREIA / CUNHA 371 RELM 00:23:04 129 62
257 01:34:35 BEREAU Fabrice 148 MV1 00:29:14 330 -30
258 01:34:36 GALIMARD Sylvain 155 MV4 00:27:06 274 -4
259 01:34:39 CAMBIER Blandine 57 FS3 00:24:27 179 39
260 01:34:50 GARTNER Simon 307 MS3 00:27:35 291 -11
261 01:34:51 CORDEAU Marina 138 FV2 00:27:10 278 -3
262 01:34:55 BOUCHETOB Coralie 152 FS2 00:28:36 316 -22
263 01:35:17 Les super mamans 385 RELF 00:26:04 242 22
264 01:35:25 BOSVY Eric 192 MV4 00:27:26 285 -1
265 01:35:26 VIPREYS 373 RELM 00:32:18 363 -82
266 01:35:28 JUNOD Alejandro 69 MS4 00:23:34 146 59
267 01:35:34 GERUM Manon 171 FS1 00:25:00 209 35
268 01:35:43 GAUTHIER Laetitia 23 FV1 00:27:08 277 7
269 01:35:43 Team coaching + 365 RELM 00:27:11 279 5
270 01:35:51 BARBET Jean-andré 348 MV6 00:27:39 293 -4
271 01:35:53 BOULCOURT Nicolas 315 MV1 00:24:40 192 40
272 01:35:56 MOUTON Pierre 100 MV3 00:24:34 184 45
273 01:36:03 QUARIGLIO David 262 MS2 00:26:43 259 13
274 01:36:10 BUSALB Eric 269 MV2 00:26:58 268 10
275 01:36:14 PATTEET Michel 29 MV5 00:28:34 315 -18
276 01:36:22 AQUAVELOPODE 384 RELM 00:27:58 300 -5
277 01:36:24 GEORGES BURDIER Barbara 232 FV1 00:27:21 282 3
278 01:36:26 ADAM François-xavier 283 MS3 00:27:18 281 5
279 01:36:29 GARNACHE Marie 253 FV2 00:28:07 307 -9
280 01:36:29 BOISSON Audrey 76 FS1 00:29:14 329 -30
281 01:36:36 LELOUP Jérôme 132 MV1 00:25:35 229 26
282 01:36:39 ROBIN Sébastien 268 MS4 00:27:05 273 10
283 01:36:42 KAUSCH Tobias 303 MS4 00:23:43 152 50
284 01:36:42 GORIN Clément 302 MS3 00:23:44 155 47
285 01:36:46 GAGNERET Sarah 295 FS3 00:25:04 211 38
286 01:36:57 BENOIT Eric 314 MV1 00:31:25 355 -58
287 01:37:00 BRUNNER Benjamin 46 MS3 00:29:37 337 -35
288 01:37:30 BESOZZI Oceane 26 FS1 00:31:23 354 -52
289 01:37:36 BERNARDO Michel 252 MV1 00:28:02 301 2
290 01:37:51 CHAMBELLANT Romain 107 MJU 00:28:46 319 -9
291 01:37:53 HERVIEU DEBOIS Christelle 329 FV2 00:29:16 331 -15
292 01:37:55 NICOLAS Stubert 156 MV2 00:26:17 248 28
293 01:38:03 GAMBEY Anne 288 FV4 00:28:20 310 0
294 01:38:04 KOENIG Arnaud 124 MS3 00:25:33 228 34
295 01:38:12 BRANCHE Juliana 91 FV1 00:27:54 297 4
296 01:38:13 DESFOSSE Thierry 273 MV4 00:25:05 213 38
297 01:38:13 LEBORGNE Nathalie 251 FV4 00:26:56 265 17
298 01:38:18 DUVAL Stephane 298 MV2 00:26:31 255 26
299 01:38:21 GAULIN Isabelle 291 FV3 00:27:56 298 2
300 01:38:26 LAMBERT Julie 254 FS4 00:28:04 303 0
301 01:38:28 OLIACH Michaël 276 MV1 00:28:29 314 -5
302 01:38:31 CUENOT Clotilde 176 FS2 00:26:01 240 25
303 01:38:34 NOIROT Anne sophie 323 FV4 00:27:32 288 5
304 01:38:36 MAINIER Dominique 32 MV3 00:29:09 326 -16
305 01:38:46 CANET Vincent 325 MV1 00:28:49 320 -10
306 01:38:47 LACOMME Alexis 263 MS3 00:23:29 143 48
307 01:38:49 GRELIER Christelle 282 FV2 00:29:49 342 -28
308 01:38:50 LOPEZ Marc 179 MV1 00:28:05 305 -5
309 01:39:05 CHEVET François 333 MV5 00:30:50 351 -41
310 01:39:07 CHEVET Guillaume 334 MS2 00:30:51 352 -41
311 01:39:11 MIGNOTTE Juliette 265 FJU 00:27:32 287 10
312 01:39:24 les trois mousquetaires 369 RELM 00:25:13 219 32
313 01:39:25 BALESI Corinne 68 FV1 00:28:04 304 3
314 01:39:33 HELLENTHALER-KUSIEWICZ Anastasia 204 FS2 00:32:42 365 -70
315 01:39:44 Faivre 380 RELM 00:29:40 339 -18
316 01:39:49 DA ROCHA David 215 FV3 00:29:56 344 -22
317 01:40:11 COSSIA Vincent 279 MS1 00:27:25 284 13
318 01:40:30 BOISSY William 319 MV2 00:26:07 245 28
319 01:40:38 THEDY Sylvie 310 FV4 00:29:25 333 -7
320 01:40:44 CHEVROLET Xavier 33 MS4 00:28:43 318 6
321 01:40:58 DA EIRA Jean 236 MV1 00:29:47 341 -11
322 01:41:06 ROUGET Michel 209 MV3 00:26:18 250 30
323 01:41:09 Les FrayFray 375 RELM 00:29:29 336 -1
324 01:41:22 FATIGA Florence 97 FS4 00:28:24 312 8
325 01:41:25 C S C 357 RELM 00:31:55 360 -36
326 01:41:27 PAFUNDI Salvatore 205 MV5 00:28:51 322 3
327 01:41:34 CHRISTELLE Vigouroux 305 FV1 00:26:58 267 22
328 01:41:49 TREPTEL Gerard 206 MV6 00:30:52 353 -22
329 01:41:55 CHERON Fabienne 267 FV1 00:24:59 208 30
330 01:42:02 PEYROUD Christophe 326 MV3 00:34:24 376 -75
331 01:42:09 GAUTIER Marine 116 FS1 00:30:33 346 -12
332 01:42:14 GALLARDO Yannick 98 MV2 00:28:18 309 11
333 01:42:15 LEFEUVRE Solene 112 FS3 00:27:50 295 14
334 01:42:16 COLLIN Angélique 190 FV3 00:28:21 311 8
335 01:42:16 CHANEL Julie 70 FS4 00:26:43 258 20
336 01:42:19 BOUGE Marine 59 FS2 00:27:36 292 15
337 01:42:19 VERNIZEAU Elisabeth 51 FV3 00:28:50 321 -2
338 01:42:30 FLEURY Philippe 188 MV4 00:28:58 325 -1
339 01:42:40 BURDIER Eric 233 MV1 00:31:33 357 -30
340 01:42:43 SMITH Delphine 304 FV1 00:28:57 324 0
341 01:42:50 LOPEZ Catherine 178 FV2 00:33:25 371 -54
342 01:43:15 Les Buet 393 RELM 00:26:44 260 16
343 01:43:25 BAUDRY Gérard 174 MS4 00:32:10 362 -30
344 01:43:43 Les Boggy 351 RELM 00:32:53 366 -40
345 01:43:46 JACQUEL Ludovic 249 MS3 00:29:54 343 -4
346 01:44:02 ROY Nicolas 235 MV2 00:27:35 289 11
347 01:44:10 eppad 395 RELH 00:36:55 382 -99
348 01:44:16 GUICHARD Anne-emilie 87 FS3 00:30:38 350 -9
349 01:44:35 LAGNEAU Manon 86 FS2 00:26:06 243 17
350 01:44:51 COMTET Kevin 250 MS2 00:27:01 270 14
351 01:44:57 SCHAWLB Isabelle 166 FV2 00:33:37 373 -36
352 01:44:59 BURTEY Aude 115 FS2 00:31:28 356 -16
353 01:45:42 La team du patron 381 RELM 00:40:33 385 -128
354 01:46:07 BAEKELANDT Dieter 25 MV3 00:32:31 364 -16
355 01:46:14 HUMBERT Mathieu 317 MS3 00:37:08 384 -73
356 01:46:47 GRENARD Sylvie 20 FV4 00:27:15 280 13
357 01:48:00 MACIOCE Mélanie 300 FS2 00:33:31 372 -9
358 01:48:20 SAGON Catherine 61 FV3 00:30:34 347 4
359 01:48:21 BERçOT Anthony 229 MS4 00:24:39 191 14
360 01:48:38 MARTINET Adeline 65 FS2 00:29:11 328 8
361 01:48:41 FARDEL Patrick 270 MV2 00:30:15 345 4
362 01:49:12 BREGAND Johann 94 MS3 00:34:49 378 -17
363 01:49:31 PRINET Franck 181 MV3 00:28:39 317 8
364 01:50:42 ROY Sophie 234 FV3 00:32:55 367 -1
365 01:50:43 GAZIN Lauren 101 FV1 00:32:04 361 2
366 01:50:45 FRELIN Damien 287 MV3 00:34:48 377 -10
367 01:51:05 DELORME Philippe 231 MV4 00:36:27 381 -17
368 01:51:24 Les palmes d'or 379 RELM 00:28:25 313 4
369 01:51:30 Les Morvandiaux 389 RELH 00:33:57 374 -8
370 01:51:30 Les Marchèlies 368 RELM 00:34:16 375 -10
371 01:51:59 AUZANNEAU Isabelle 308 FV5 00:31:47 359 -1
372 01:52:50 BARBERAT Claude 222 MV5 00:41:57 386 -67
373 01:53:11 DEBRIENNE Lucile 193 FS2 00:29:29 335 1
374 01:53:39 EQIOM Bétons 2 356 RELH 00:24:34 183 10
375 01:54:11 FEYNEROL Nathalie 309 FV4 00:29:39 338 0
376 01:55:49 Les Trankils 353 RELM 00:29:11 327 2
377 01:55:56 MEURIOT Sandra 47 FV3 00:30:36 348 0
378 01:55:56 VINCENT Valérie 48 FV3 00:30:37 349 -2
379 01:58:21 NICOL Patrice 316 MV1 00:29:27 334 3
380 02:01:02 HAQUIN Claire 24 FV1 00:33:05 368 0
381 02:02:16 DAVY Clara 294 FJU 00:33:19 369 2
382 02:03:24 HENRIET Christine 53 FV4 00:33:23 370 3
383 02:04:40 PHILIPPON Roland 89 MV5 00:35:51 380 -2
384 02:05:09 COQUELLE Léa 90 FS1 00:31:38 358 4
385 02:05:53 CAUSERET Anne sophie 299 FV2 00:34:59 379 1
386 02:09:35 COLIN Marie 106 FJU 00:42:43 387 -7
387 02:09:41 CHATAGNAT Valérie 311 FV2 00:37:03 383 0


Restez connectés à vos performances